sensor_id;sensor_type;location;lat;lon;timestamp;pressure;altitude;pressure_sealevel;temperature;humidity
10392;BME280;5242;49.244;6.774;2022-12-18T00:05:13;69656.28;;;-145.40;100.00
10392;BME280;5242;49.244;6.774;2022-12-18T00:13:05;69656.28;;;-145.40;100.00
10392;BME280;5242;49.244;6.774;2022-12-18T00:21:02;69656.28;;;-145.40;100.00
10392;BME280;5242;49.244;6.774;2022-12-18T00:28:57;69656.28;;;-145.40;100.00
10392;BME280;5242;49.244;6.774;2022-12-18T00:36:49;69656.28;;;-145.40;100.00
10392;BME280;5242;49.244;6.774;2022-12-18T00:44:41;69656.28;;;-145.40;100.00
10392;BME280;5242;49.244;6.774;2022-12-18T00:52:33;69656.28;;;-145.40;100.00
10392;BME280;5242;49.244;6.774;2022-12-18T01:00:25;69656.28;;;-145.40;100.00
10392;BME280;5242;49.244;6.774;2022-12-18T01:08:17;69656.28;;;-145.40;100.00
10392;BME280;5242;49.244;6.774;2022-12-18T01:16:15;69656.28;;;-145.40;100.00
10392;BME280;5242;49.244;6.774;2022-12-18T01:24:11;69656.28;;;-145.40;100.00
10392;BME280;5242;49.244;6.774;2022-12-18T01:32:03;69656.28;;;-145.40;100.00
10392;BME280;5242;49.244;6.774;2022-12-18T01:39:56;69656.28;;;-145.40;100.00
10392;BME280;5242;49.244;6.774;2022-12-18T01:55:43;69656.28;;;-145.40;100.00
10392;BME280;5242;49.244;6.774;2022-12-18T02:03:36;69656.28;;;-145.40;100.00
10392;BME280;5242;49.244;6.774;2022-12-18T02:19:41;69656.28;;;-145.40;100.00
10392;BME280;5242;49.244;6.774;2022-12-18T02:27:37;69656.28;;;-145.40;100.00
10392;BME280;5242;49.244;6.774;2022-12-18T02:35:31;69656.28;;;-145.40;100.00
10392;BME280;5242;49.244;6.774;2022-12-18T02:43:24;69656.28;;;-145.40;100.00
10392;BME280;5242;49.244;6.774;2022-12-18T02:51:38;69656.28;;;-145.40;100.00
10392;BME280;5242;49.244;6.774;2022-12-18T02:59:40;69656.28;;;-145.40;100.00
10392;BME280;5242;49.244;6.774;2022-12-18T03:07:46;69656.28;;;-145.40;100.00
10392;BME280;5242;49.244;6.774;2022-12-18T03:15:47;69656.28;;;-145.40;100.00
10392;BME280;5242;49.244;6.774;2022-12-18T03:23:45;69656.28;;;-145.40;100.00
10392;BME280;5242;49.244;6.774;2022-12-18T03:31:41;69656.28;;;-145.40;100.00
10392;BME280;5242;49.244;6.774;2022-12-18T03:39:34;69656.28;;;-145.40;100.00
10392;BME280;5242;49.244;6.774;2022-12-18T03:47:32;69656.28;;;-145.40;100.00
10392;BME280;5242;49.244;6.774;2022-12-18T03:55:27;69656.28;;;-145.40;100.00
10392;BME280;5242;49.244;6.774;2022-12-18T04:03:21;69656.28;;;-145.40;100.00
10392;BME280;5242;49.244;6.774;2022-12-18T04:11:17;69656.28;;;-145.40;100.00
10392;BME280;5242;49.244;6.774;2022-12-18T04:19:09;69656.28;;;-145.40;100.00
10392;BME280;5242;49.244;6.774;2022-12-18T04:27:01;69656.28;;;-145.40;100.00
10392;BME280;5242;49.244;6.774;2022-12-18T04:34:53;69656.28;;;-145.40;100.00
10392;BME280;5242;49.244;6.774;2022-12-18T04:42:45;69656.28;;;-145.40;100.00
10392;BME280;5242;49.244;6.774;2022-12-18T04:50:37;69656.28;;;-145.40;100.00
10392;BME280;5242;49.244;6.774;2022-12-18T04:58:29;69656.28;;;-145.40;100.00
10392;BME280;5242;49.244;6.774;2022-12-18T05:06:20;69656.28;;;-145.40;100.00
10392;BME280;5242;49.244;6.774;2022-12-18T05:14:12;69656.28;;;-145.40;100.00
10392;BME280;5242;49.244;6.774;2022-12-18T05:22:04;69656.28;;;-145.40;100.00
10392;BME280;5242;49.244;6.774;2022-12-18T05:29:59;69656.28;;;-145.40;100.00
10392;BME280;5242;49.244;6.774;2022-12-18T05:37:51;69656.28;;;-145.40;100.00
10392;BME280;5242;49.244;6.774;2022-12-18T05:45:42;69656.28;;;-145.40;100.00
10392;BME280;5242;49.244;6.774;2022-12-18T05:53:35;69656.28;;;-145.40;100.00
10392;BME280;5242;49.244;6.774;2022-12-18T06:01:28;69656.28;;;-145.40;100.00
10392;BME280;5242;49.244;6.774;2022-12-18T06:09:20;69656.28;;;-145.40;100.00
10392;BME280;5242;49.244;6.774;2022-12-18T06:17:11;69656.28;;;-145.40;100.00
10392;BME280;5242;49.244;6.774;2022-12-18T06:25:04;69656.28;;;-145.40;100.00
10392;BME280;5242;49.244;6.774;2022-12-18T06:32:58;69656.28;;;-145.40;100.00
10392;BME280;5242;49.244;6.774;2022-12-18T06:40:50;69656.28;;;-145.40;100.00
10392;BME280;5242;49.244;6.774;2022-12-18T06:48:42;69656.28;;;-145.40;100.00
10392;BME280;5242;49.244;6.774;2022-12-18T06:56:34;69656.28;;;-145.40;100.00
10392;BME280;5242;49.244;6.774;2022-12-18T07:04:29;69656.28;;;-145.40;100.00
10392;BME280;5242;49.244;6.774;2022-12-18T07:12:21;69656.28;;;-145.40;100.00
10392;BME280;5242;49.244;6.774;2022-12-18T07:20:13;69656.28;;;-145.40;100.00
10392;BME280;5242;49.244;6.774;2022-12-18T07:28:05;69656.28;;;-145.40;100.00
10392;BME280;5242;49.244;6.774;2022-12-18T07:35:59;69656.28;;;-145.40;100.00
10392;BME280;5242;49.244;6.774;2022-12-18T07:43:51;69656.28;;;-145.40;100.00
10392;BME280;5242;49.244;6.774;2022-12-18T07:51:43;69656.28;;;-145.40;100.00
10392;BME280;5242;49.244;6.774;2022-12-18T07:59:37;69656.28;;;-145.40;100.00
10392;BME280;5242;49.244;6.774;2022-12-18T08:07:29;69656.28;;;-145.40;100.00
10392;BME280;5242;49.244;6.774;2022-12-18T08:15:22;69656.28;;;-145.40;100.00
10392;BME280;5242;49.244;6.774;2022-12-18T08:23:13;69656.28;;;-145.40;100.00
10392;BME280;5242;49.244;6.774;2022-12-18T08:31:06;69656.28;;;-145.40;100.00
10392;BME280;5242;49.244;6.774;2022-12-18T08:38:58;69656.28;;;-145.40;100.00
10392;BME280;5242;49.244;6.774;2022-12-18T08:46:50;69656.28;;;-145.40;100.00
10392;BME280;5242;49.244;6.774;2022-12-18T09:09:56;100845.34;;;-7.45;91.86
10392;BME280;5242;49.244;6.774;2022-12-18T09:17:48;100850.03;;;-7.47;91.62
10392;BME280;5242;49.244;6.774;2022-12-18T09:25:41;100847.00;;;-7.31;91.96
10392;BME280;5242;49.244;6.774;2022-12-18T09:33:35;100820.50;;;-7.24;91.40
10392;BME280;5242;49.244;6.774;2022-12-18T09:49:46;100840.47;;;-6.95;92.43
10392;BME280;5242;49.244;6.774;2022-12-18T09:57:45;100834.94;;;-6.87;92.08
10392;BME280;5242;49.244;6.774;2022-12-18T10:05:54;100822.50;;;-6.86;92.10
10392;BME280;5242;49.244;6.774;2022-12-18T10:30:01;100799.22;;;-6.78;91.87
10392;BME280;5242;49.244;6.774;2022-12-18T10:54:14;100767.16;;;-6.56;93.18
10392;BME280;5242;49.244;6.774;2022-12-18T11:02:26;100755.44;;;-6.28;93.38
10392;BME280;5242;49.244;6.774;2022-12-18T11:10:20;100750.81;;;-6.08;92.11
10392;BME280;5242;49.244;6.774;2022-12-18T11:26:10;100720.38;;;-5.80;91.10
10392;BME280;5242;49.244;6.774;2022-12-18T11:42:28;100720.13;;;-5.72;91.38
10392;BME280;5242;49.244;6.774;2022-12-18T11:50:33;100712.03;;;-5.59;90.81
10392;BME280;5242;49.244;6.774;2022-12-18T12:06:53;100711.59;;;-5.56;89.69
10392;BME280;5242;49.244;6.774;2022-12-18T12:15:10;100700.25;;;-5.44;90.43
10392;BME280;5242;49.244;6.774;2022-12-18T12:23:22;100678.44;;;-5.28;89.33
10392;BME280;5242;49.244;6.774;2022-12-18T12:31:48;100686.50;;;-5.16;89.15
10392;BME280;5242;49.244;6.774;2022-12-18T12:39:47;100672.69;;;-5.07;88.96
10392;BME280;5242;49.244;6.774;2022-12-18T12:47:41;100672.38;;;-4.80;89.27
10392;BME280;5242;49.244;6.774;2022-12-18T12:55:34;100655.84;;;-4.52;88.26
10392;BME280;5242;49.244;6.774;2022-12-18T13:11:45;100631.03;;;-4.22;86.02
10392;BME280;5242;49.244;6.774;2022-12-18T13:20:06;100627.81;;;-4.12;86.47
10392;BME280;5242;49.244;6.774;2022-12-18T13:28:10;100635.72;;;-4.06;85.82
10392;BME280;5242;49.244;6.774;2022-12-18T13:36:23;100622.16;;;-4.04;85.38
10392;BME280;5242;49.244;6.774;2022-12-18T13:52:24;100607.25;;;-4.05;86.28
10392;BME280;5242;49.244;6.774;2022-12-18T14:00:26;100608.63;;;-4.03;86.28
10392;BME280;5242;49.244;6.774;2022-12-18T14:08:20;100605.06;;;-4.08;86.24
10392;BME280;5242;49.244;6.774;2022-12-18T14:16:14;100603.06;;;-4.13;86.54
10392;BME280;5242;49.244;6.774;2022-12-18T14:24:19;100604.34;;;-4.16;86.66
10392;BME280;5242;49.244;6.774;2022-12-18T14:32:15;100607.03;;;-4.04;88.13
10392;BME280;5242;49.244;6.774;2022-12-18T14:40:12;100616.16;;;-4.11;88.10
10392;BME280;5242;49.244;6.774;2022-12-18T14:48:11;100610.47;;;-4.15;88.15
10392;BME280;5242;49.244;6.774;2022-12-18T14:56:19;100637.88;;;-4.15;88.02
10392;BME280;5242;49.244;6.774;2022-12-18T15:04:41;100624.03;;;-4.17;88.36
10392;BME280;5242;49.244;6.774;2022-12-18T15:12:39;100625.97;;;-4.24;87.75
10392;BME280;5242;49.244;6.774;2022-12-18T15:20:33;100632.78;;;-4.28;88.28
10392;BME280;5242;49.244;6.774;2022-12-18T15:28:37;100642.97;;;-4.25;88.69
10392;BME280;5242;49.244;6.774;2022-12-18T15:36:31;100632.31;;;-4.25;88.91
10392;BME280;5242;49.244;6.774;2022-12-18T15:44:23;100611.50;;;-4.28;88.73
10392;BME280;5242;49.244;6.774;2022-12-18T15:52:16;100614.97;;;-4.27;89.05
10392;BME280;5242;49.244;6.774;2022-12-18T16:00:17;100614.75;;;-4.26;89.33
10392;BME280;5242;49.244;6.774;2022-12-18T16:08:09;100606.88;;;-4.21;90.14
10392;BME280;5242;49.244;6.774;2022-12-18T16:16:01;100624.03;;;-4.17;89.64
10392;BME280;5242;49.244;6.774;2022-12-18T16:23:52;100616.72;;;-4.09;89.50
10392;BME280;5242;49.244;6.774;2022-12-18T16:31:44;100616.97;;;-3.99;90.19
10392;BME280;5242;49.244;6.774;2022-12-18T16:39:37;100611.53;;;-3.92;89.72
10392;BME280;5242;49.244;6.774;2022-12-18T16:47:28;100615.25;;;-3.94;89.84
10392;BME280;5242;49.244;6.774;2022-12-18T16:55:20;100612.94;;;-3.90;89.64
10392;BME280;5242;49.244;6.774;2022-12-18T17:03:12;100609.69;;;-3.92;90.32
10392;BME280;5242;49.244;6.774;2022-12-18T17:11:07;100605.28;;;-3.98;89.62
10392;BME280;5242;49.244;6.774;2022-12-18T17:18:58;100599.25;;;-4.05;90.53
10392;BME280;5242;49.244;6.774;2022-12-18T17:26:50;100583.19;;;-4.10;90.16
10392;BME280;5242;49.244;6.774;2022-12-18T17:34:42;100579.94;;;-4.12;90.63
10392;BME280;5242;49.244;6.774;2022-12-18T17:42:34;100565.13;;;-4.08;90.95
10392;BME280;5242;49.244;6.774;2022-12-18T17:50:26;100553.81;;;-4.04;90.56
10392;BME280;5242;49.244;6.774;2022-12-18T17:58:17;100550.00;;;-3.96;90.96
10392;BME280;5242;49.244;6.774;2022-12-18T18:06:09;100546.59;;;-3.91;90.67
10392;BME280;5242;49.244;6.774;2022-12-18T18:14:03;100549.97;;;-3.84;92.07
10392;BME280;5242;49.244;6.774;2022-12-18T18:21:55;100539.78;;;-3.76;91.91
10392;BME280;5242;49.244;6.774;2022-12-18T18:29:47;100538.03;;;-3.70;91.12
10392;BME280;5242;49.244;6.774;2022-12-18T18:37:39;100518.69;;;-3.65;91.13
10392;BME280;5242;49.244;6.774;2022-12-18T18:45:32;100526.53;;;-3.59;91.20
10392;BME280;5242;49.244;6.774;2022-12-18T18:53:24;100529.41;;;-3.48;91.42
10392;BME280;5242;49.244;6.774;2022-12-18T19:01:17;100526.84;;;-3.43;91.18
10392;BME280;5242;49.244;6.774;2022-12-18T19:09:09;100530.41;;;-3.38;90.94
10392;BME280;5242;49.244;6.774;2022-12-18T19:17:01;100524.16;;;-3.32;90.82
10392;BME280;5242;49.244;6.774;2022-12-18T19:24:54;100529.47;;;-3.32;90.46
10392;BME280;5242;49.244;6.774;2022-12-18T19:32:46;100502.34;;;-3.29;90.85
10392;BME280;5242;49.244;6.774;2022-12-18T19:40:42;100509.44;;;-3.34;90.34
10392;BME280;5242;49.244;6.774;2022-12-18T19:48:34;100514.78;;;-3.34;90.59
10392;BME280;5242;49.244;6.774;2022-12-18T19:56:29;100490.31;;;-3.31;90.87
10392;BME280;5242;49.244;6.774;2022-12-18T20:04:21;100497.03;;;-3.29;90.58
10392;BME280;5242;49.244;6.774;2022-12-18T20:12:13;100479.97;;;-3.28;90.76
10392;BME280;5242;49.244;6.774;2022-12-18T20:20:06;100489.13;;;-3.23;90.85
10392;BME280;5242;49.244;6.774;2022-12-18T20:27:58;100484.94;;;-3.19;90.65
10392;BME280;5242;49.244;6.774;2022-12-18T20:35:50;100495.94;;;-3.16;91.03
10392;BME280;5242;49.244;6.774;2022-12-18T20:43:42;100489.97;;;-3.06;91.12
10392;BME280;5242;49.244;6.774;2022-12-18T20:51:35;100500.81;;;-2.96;90.83
10392;BME280;5242;49.244;6.774;2022-12-18T20:59:27;100499.34;;;-2.87;90.41
10392;BME280;5242;49.244;6.774;2022-12-18T21:07:19;100485.00;;;-2.86;90.13
10392;BME280;5242;49.244;6.774;2022-12-18T21:15:12;100473.53;;;-2.86;90.16
10392;BME280;5242;49.244;6.774;2022-12-18T21:23:03;100497.28;;;-2.85;90.43
10392;BME280;5242;49.244;6.774;2022-12-18T21:31:06;100495.50;;;-2.79;90.58
10392;BME280;5242;49.244;6.774;2022-12-18T21:39:01;100506.50;;;-2.75;90.27
10392;BME280;5242;49.244;6.774;2022-12-18T21:46:53;100495.84;;;-2.75;89.67
10392;BME280;5242;49.244;6.774;2022-12-18T21:54:54;100506.50;;;-2.75;89.93
10392;BME280;5242;49.244;6.774;2022-12-18T22:02:47;100500.69;;;-2.72;89.79
10392;BME280;5242;49.244;6.774;2022-12-18T22:10:59;100497.53;;;-2.69;89.88
10392;BME280;5242;49.244;6.774;2022-12-18T22:18:51;100485.81;;;-2.68;90.13
10392;BME280;5242;49.244;6.774;2022-12-18T22:26:43;100493.91;;;-2.63;90.38
10392;BME280;5242;49.244;6.774;2022-12-18T22:34:35;100476.44;;;-2.54;90.38
10392;BME280;5242;49.244;6.774;2022-12-18T22:42:29;100487.25;;;-2.44;90.43
10392;BME280;5242;49.244;6.774;2022-12-18T22:50:21;100485.31;;;-2.31;90.19
10392;BME280;5242;49.244;6.774;2022-12-18T22:58:13;100482.47;;;-2.25;89.86
10392;BME280;5242;49.244;6.774;2022-12-18T23:06:05;100473.72;;;-2.20;89.98
10392;BME280;5242;49.244;6.774;2022-12-18T23:13:58;100467.56;;;-2.21;89.84
10392;BME280;5242;49.244;6.774;2022-12-18T23:21:50;100428.28;;;-2.25;89.86
10392;BME280;5242;49.244;6.774;2022-12-18T23:29:42;100419.66;;;-2.32;89.79
10392;BME280;5242;49.244;6.774;2022-12-18T23:37:35;100413.81;;;-2.29;90.53
10392;BME280;5242;49.244;6.774;2022-12-18T23:45:47;100408.28;;;-2.23;90.47
10392;BME280;5242;49.244;6.774;2022-12-18T23:53:46;100424.25;;;-2.06;90.70
